sensor_id;sensor_type;location;lat;lon;timestamp;temperature;humidity
2202;DHT22;1107;48.654;9.250;2023-04-24T00:02:01;10.80;99.90
2202;DHT22;1107;48.654;9.250;2023-04-24T00:04:29;10.70;99.90
2202;DHT22;1107;48.654;9.250;2023-04-24T00:06:57;10.70;99.90
2202;DHT22;1107;48.654;9.250;2023-04-24T00:09:25;10.80;99.90
2202;DHT22;1107;48.654;9.250;2023-04-24T00:11:54;10.80;99.90
2202;DHT22;1107;48.654;9.250;2023-04-24T00:14:21;10.80;99.90
2202;DHT22;1107;48.654;9.250;2023-04-24T00:16:48;10.80;99.90
2202;DHT22;1107;48.654;9.250;2023-04-24T00:19:15;10.80;99.90
2202;DHT22;1107;48.654;9.250;2023-04-24T00:21:42;10.80;99.90
2202;DHT22;1107;48.654;9.250;2023-04-24T00:24:09;10.90;99.90
2202;DHT22;1107;48.654;9.250;2023-04-24T00:26:36;10.90;99.90
2202;DHT22;1107;48.654;9.250;2023-04-24T00:29:04;10.90;99.90
2202;DHT22;1107;48.654;9.250;2023-04-24T00:31:31;10.90;99.90
2202;DHT22;1107;48.654;9.250;2023-04-24T00:34:00;10.90;99.90
2202;DHT22;1107;48.654;9.250;2023-04-24T00:36:27;10.90;99.90
2202;DHT22;1107;48.654;9.250;2023-04-24T00:38:54;10.90;99.90
2202;DHT22;1107;48.654;9.250;2023-04-24T00:41:21;10.90;99.90
2202;DHT22;1107;48.654;9.250;2023-04-24T00:43:48;10.90;99.90
2202;DHT22;1107;48.654;9.250;2023-04-24T00:46:17;10.90;99.90
2202;DHT22;1107;48.654;9.250;2023-04-24T00:48:44;11.00;99.90
2202;DHT22;1107;48.654;9.250;2023-04-24T00:51:11;11.00;99.90
2202;DHT22;1107;48.654;9.250;2023-04-24T00:53:38;11.00;99.90
2202;DHT22;1107;48.654;9.250;2023-04-24T00:56:05;11.00;99.90
2202;DHT22;1107;48.654;9.250;2023-04-24T00:58:32;11.00;99.90
2202;DHT22;1107;48.654;9.250;2023-04-24T01:01:00;11.00;99.90
2202;DHT22;1107;48.654;9.250;2023-04-24T01:03:30;11.10;99.90
2202;DHT22;1107;48.654;9.250;2023-04-24T01:05:58;11.10;99.90
2202;DHT22;1107;48.654;9.250;2023-04-24T01:08:26;11.10;99.90
2202;DHT22;1107;48.654;9.250;2023-04-24T01:10:55;11.10;99.90
2202;DHT22;1107;48.654;9.250;2023-04-24T01:13:23;11.20;99.90
2202;DHT22;1107;48.654;9.250;2023-04-24T01:15:50;11.20;99.90
2202;DHT22;1107;48.654;9.250;2023-04-24T01:18:17;11.10;99.90
2202;DHT22;1107;48.654;9.250;2023-04-24T01:20:46;11.20;99.90
2202;DHT22;1107;48.654;9.250;2023-04-24T01:23:15;11.10;99.90
2202;DHT22;1107;48.654;9.250;2023-04-24T01:25:42;11.10;99.90
2202;DHT22;1107;48.654;9.250;2023-04-24T01:28:09;11.20;99.90
2202;DHT22;1107;48.654;9.250;2023-04-24T01:30:36;11.10;99.90
2202;DHT22;1107;48.654;9.250;2023-04-24T01:33:03;11.10;99.90
2202;DHT22;1107;48.654;9.250;2023-04-24T01:35:31;11.10;99.90
2202;DHT22;1107;48.654;9.250;2023-04-24T01:37:58;11.10;99.90
2202;DHT22;1107;48.654;9.250;2023-04-24T01:40:26;11.00;99.90
2202;DHT22;1107;48.654;9.250;2023-04-24T01:42:53;11.00;99.90
2202;DHT22;1107;48.654;9.250;2023-04-24T01:45:20;11.00;99.90
2202;DHT22;1107;48.654;9.250;2023-04-24T01:47:47;11.00;99.90
2202;DHT22;1107;48.654;9.250;2023-04-24T01:50:16;10.90;99.90
2202;DHT22;1107;48.654;9.250;2023-04-24T01:52:43;10.90;99.90
2202;DHT22;1107;48.654;9.250;2023-04-24T01:55:10;10.90;99.90
2202;DHT22;1107;48.654;9.250;2023-04-24T01:57:39;10.80;99.90
2202;DHT22;1107;48.654;9.250;2023-04-24T02:00:07;10.80;99.90
2202;DHT22;1107;48.654;9.250;2023-04-24T02:02:36;10.80;99.90
2202;DHT22;1107;48.654;9.250;2023-04-24T02:05:06;10.80;99.90
2202;DHT22;1107;48.654;9.250;2023-04-24T02:07:33;10.80;99.90
2202;DHT22;1107;48.654;9.250;2023-04-24T02:10:00;10.80;99.90
2202;DHT22;1107;48.654;9.250;2023-04-24T02:12:27;10.80;99.90
2202;DHT22;1107;48.654;9.250;2023-04-24T02:14:55;10.80;99.90
2202;DHT22;1107;48.654;9.250;2023-04-24T02:17:22;10.80;99.90
2202;DHT22;1107;48.654;9.250;2023-04-24T02:19:49;10.80;99.90
2202;DHT22;1107;48.654;9.250;2023-04-24T02:22:16;10.80;99.90
2202;DHT22;1107;48.654;9.250;2023-04-24T02:24:43;10.70;99.90
2202;DHT22;1107;48.654;9.250;2023-04-24T02:27:10;10.70;99.90
2202;DHT22;1107;48.654;9.250;2023-04-24T02:29:38;10.70;99.90
2202;DHT22;1107;48.654;9.250;2023-04-24T02:32:06;10.60;99.90
2202;DHT22;1107;48.654;9.250;2023-04-24T02:34:36;10.50;99.90
2202;DHT22;1107;48.654;9.250;2023-04-24T02:37:03;10.50;99.90
2202;DHT22;1107;48.654;9.250;2023-04-24T02:39:30;10.50;99.90
2202;DHT22;1107;48.654;9.250;2023-04-24T02:41:57;10.40;99.90
2202;DHT22;1107;48.654;9.250;2023-04-24T02:44:25;10.30;99.90
2202;DHT22;1107;48.654;9.250;2023-04-24T02:46:52;10.40;99.90
2202;DHT22;1107;48.654;9.250;2023-04-24T02:49:20;10.40;99.90
2202;DHT22;1107;48.654;9.250;2023-04-24T02:51:47;10.40;99.90
2202;DHT22;1107;48.654;9.250;2023-04-24T02:54:14;10.50;99.90
2202;DHT22;1107;48.654;9.250;2023-04-24T02:56:41;10.50;99.90
2202;DHT22;1107;48.654;9.250;2023-04-24T02:59:08;10.40;99.90
2202;DHT22;1107;48.654;9.250;2023-04-24T03:01:35;10.50;99.90
2202;DHT22;1107;48.654;9.250;2023-04-24T03:04:02;10.40;99.90
2202;DHT22;1107;48.654;9.250;2023-04-24T03:06:31;10.40;99.90
2202;DHT22;1107;48.654;9.250;2023-04-24T03:09:01;10.40;99.90
2202;DHT22;1107;48.654;9.250;2023-04-24T03:11:28;10.30;99.90
2202;DHT22;1107;48.654;9.250;2023-04-24T03:13:55;10.30;99.90
2202;DHT22;1107;48.654;9.250;2023-04-24T03:16:22;10.30;99.90
2202;DHT22;1107;48.654;9.250;2023-04-24T03:18:49;10.30;99.90
2202;DHT22;1107;48.654;9.250;2023-04-24T03:21:16;10.30;99.90
2202;DHT22;1107;48.654;9.250;2023-04-24T03:23:44;10.20;99.90
2202;DHT22;1107;48.654;9.250;2023-04-24T03:26:11;10.20;99.90
2202;DHT22;1107;48.654;9.250;2023-04-24T03:28:38;10.10;99.90
2202;DHT22;1107;48.654;9.250;2023-04-24T03:31:05;10.10;99.90
2202;DHT22;1107;48.654;9.250;2023-04-24T03:33:32;10.00;99.90
2202;DHT22;1107;48.654;9.250;2023-04-24T03:35:59;9.90;99.90
2202;DHT22;1107;48.654;9.250;2023-04-24T03:38:26;9.90;99.90
2202;DHT22;1107;48.654;9.250;2023-04-24T03:40:54;9.90;99.90
2202;DHT22;1107;48.654;9.250;2023-04-24T03:43:21;9.90;99.90
2202;DHT22;1107;48.654;9.250;2023-04-24T03:45:48;9.90;99.90
2202;DHT22;1107;48.654;9.250;2023-04-24T03:48:16;10.00;99.90
2202;DHT22;1107;48.654;9.250;2023-04-24T03:50:43;10.00;99.90
2202;DHT22;1107;48.654;9.250;2023-04-24T03:53:10;9.90;99.90
2202;DHT22;1107;48.654;9.250;2023-04-24T03:55:37;9.90;99.90
2202;DHT22;1107;48.654;9.250;2023-04-24T03:58:05;9.80;99.90
2202;DHT22;1107;48.654;9.250;2023-04-24T04:00:32;9.80;99.90
2202;DHT22;1107;48.654;9.250;2023-04-24T04:03:00;9.80;99.90
2202;DHT22;1107;48.654;9.250;2023-04-24T04:05:27;9.80;99.90
2202;DHT22;1107;48.654;9.250;2023-04-24T04:07:54;9.70;99.90
2202;DHT22;1107;48.654;9.250;2023-04-24T04:10:21;9.70;99.90
2202;DHT22;1107;48.654;9.250;2023-04-24T04:12:48;9.60;99.90
2202;DHT22;1107;48.654;9.250;2023-04-24T04:15:16;9.60;99.90
2202;DHT22;1107;48.654;9.250;2023-04-24T04:17:43;9.60;99.90
2202;DHT22;1107;48.654;9.250;2023-04-24T04:20:11;9.70;99.90
2202;DHT22;1107;48.654;9.250;2023-04-24T04:22:39;9.70;99.90
2202;DHT22;1107;48.654;9.250;2023-04-24T04:25:06;9.80;99.90
2202;DHT22;1107;48.654;9.250;2023-04-24T04:27:34;9.80;99.90
2202;DHT22;1107;48.654;9.250;2023-04-24T04:30:02;9.90;99.90
2202;DHT22;1107;48.654;9.250;2023-04-24T04:32:31;9.90;99.90
2202;DHT22;1107;48.654;9.250;2023-04-24T04:35:00;9.90;99.90
2202;DHT22;1107;48.654;9.250;2023-04-24T04:37:28;9.90;99.90
2202;DHT22;1107;48.654;9.250;2023-04-24T04:39:55;9.90;99.90
2202;DHT22;1107;48.654;9.250;2023-04-24T04:42:23;9.90;99.90
2202;DHT22;1107;48.654;9.250;2023-04-24T04:44:50;9.90;99.90
2202;DHT22;1107;48.654;9.250;2023-04-24T04:47:17;10.00;99.90
2202;DHT22;1107;48.654;9.250;2023-04-24T04:49:46;9.90;99.90
2202;DHT22;1107;48.654;9.250;2023-04-24T04:52:13;9.90;99.90
2202;DHT22;1107;48.654;9.250;2023-04-24T04:54:42;10.00;99.90
2202;DHT22;1107;48.654;9.250;2023-04-24T04:57:09;9.90;99.90
2202;DHT22;1107;48.654;9.250;2023-04-24T04:59:37;9.70;99.90
2202;DHT22;1107;48.654;9.250;2023-04-24T05:02:04;9.50;99.90
2202;DHT22;1107;48.654;9.250;2023-04-24T05:04:31;9.40;99.90
2202;DHT22;1107;48.654;9.250;2023-04-24T05:06:59;9.40;99.90
2202;DHT22;1107;48.654;9.250;2023-04-24T05:09:26;9.30;99.90
2202;DHT22;1107;48.654;9.250;2023-04-24T05:11:55;9.30;99.90
2202;DHT22;1107;48.654;9.250;2023-04-24T05:14:22;9.40;99.90
2202;DHT22;1107;48.654;9.250;2023-04-24T05:16:48;9.40;99.90
2202;DHT22;1107;48.654;9.250;2023-04-24T05:19:16;9.40;99.90
2202;DHT22;1107;48.654;9.250;2023-04-24T05:21:43;9.40;99.90
2202;DHT22;1107;48.654;9.250;2023-04-24T05:24:12;9.30;99.90
2202;DHT22;1107;48.654;9.250;2023-04-24T05:26:39;9.30;99.90
2202;DHT22;1107;48.654;9.250;2023-04-24T05:29:06;9.30;99.90
2202;DHT22;1107;48.654;9.250;2023-04-24T05:31:33;9.30;99.90
2202;DHT22;1107;48.654;9.250;2023-04-24T05:33:59;9.30;99.90
2202;DHT22;1107;48.654;9.250;2023-04-24T05:36:26;9.30;99.90
2202;DHT22;1107;48.654;9.250;2023-04-24T05:38:53;9.30;99.90
2202;DHT22;1107;48.654;9.250;2023-04-24T05:41:22;9.20;99.90
2202;DHT22;1107;48.654;9.250;2023-04-24T05:43:49;9.30;99.90
2202;DHT22;1107;48.654;9.250;2023-04-24T05:46:16;9.30;99.90
2202;DHT22;1107;48.654;9.250;2023-04-24T05:48:43;9.30;99.90
2202;DHT22;1107;48.654;9.250;2023-04-24T05:51:10;9.40;99.90
2202;DHT22;1107;48.654;9.250;2023-04-24T05:53:37;9.40;99.90
2202;DHT22;1107;48.654;9.250;2023-04-24T05:56:05;9.50;99.90
2202;DHT22;1107;48.654;9.250;2023-04-24T05:58:33;9.50;99.90
2202;DHT22;1107;48.654;9.250;2023-04-24T06:01:00;9.60;99.90
2202;DHT22;1107;48.654;9.250;2023-04-24T06:03:28;9.60;99.90
2202;DHT22;1107;48.654;9.250;2023-04-24T06:05:55;9.70;99.90
2202;DHT22;1107;48.654;9.250;2023-04-24T06:08:21;9.70;99.90
2202;DHT22;1107;48.654;9.250;2023-04-24T06:10:48;9.70;99.90
2202;DHT22;1107;48.654;9.250;2023-04-24T06:13:15;9.80;99.90
2202;DHT22;1107;48.654;9.250;2023-04-24T06:15:44;9.90;99.90
2202;DHT22;1107;48.654;9.250;2023-04-24T06:18:11;10.00;99.90
2202;DHT22;1107;48.654;9.250;2023-04-24T06:20:38;10.00;99.90
2202;DHT22;1107;48.654;9.250;2023-04-24T06:23:05;10.00;99.90
2202;DHT22;1107;48.654;9.250;2023-04-24T06:25:32;10.10;99.90
2202;DHT22;1107;48.654;9.250;2023-04-24T06:27:59;10.50;99.90
2202;DHT22;1107;48.654;9.250;2023-04-24T06:30:27;10.60;99.90
2202;DHT22;1107;48.654;9.250;2023-04-24T06:32:55;11.20;99.90
2202;DHT22;1107;48.654;9.250;2023-04-24T06:35:22;11.40;99.90
2202;DHT22;1107;48.654;9.250;2023-04-24T06:37:50;12.00;99.90
2202;DHT22;1107;48.654;9.250;2023-04-24T06:40:16;12.30;99.90
2202;DHT22;1107;48.654;9.250;2023-04-24T06:42:44;12.80;99.90
2202;DHT22;1107;48.654;9.250;2023-04-24T06:45:11;13.10;99.90
2202;DHT22;1107;48.654;9.250;2023-04-24T06:47:38;13.50;99.90
2202;DHT22;1107;48.654;9.250;2023-04-24T06:50:07;13.60;99.90
2202;DHT22;1107;48.654;9.250;2023-04-24T06:52:34;13.10;99.90
2202;DHT22;1107;48.654;9.250;2023-04-24T06:55:01;13.30;99.90
2202;DHT22;1107;48.654;9.250;2023-04-24T06:57:28;13.20;99.90
2202;DHT22;1107;48.654;9.250;2023-04-24T06:59:56;13.90;99.90
2202;DHT22;1107;48.654;9.250;2023-04-24T07:02:23;14.20;28.40
2202;DHT22;1107;48.654;9.250;2023-04-24T07:04:50;14.50;1.00
2202;DHT22;1107;48.654;9.250;2023-04-24T07:07:18;14.80;1.00
2202;DHT22;1107;48.654;9.250;2023-04-24T07:09:45;14.00;1.00
2202;DHT22;1107;48.654;9.250;2023-04-24T07:12:12;13.90;1.00
2202;DHT22;1107;48.654;9.250;2023-04-24T07:14:39;13.90;1.00
2202;DHT22;1107;48.654;9.250;2023-04-24T07:17:06;13.00;99.90
2202;DHT22;1107;48.654;9.250;2023-04-24T07:19:33;12.20;1.00
2202;DHT22;1107;48.654;9.250;2023-04-24T07:22:01;11.60;99.90
2202;DHT22;1107;48.654;9.250;2023-04-24T07:24:30;11.40;99.90
2202;DHT22;1107;48.654;9.250;2023-04-24T07:26:58;11.20;99.90
2202;DHT22;1107;48.654;9.250;2023-04-24T07:29:26;11.10;99.90
2202;DHT22;1107;48.654;9.250;2023-04-24T07:31:54;11.00;99.90
2202;DHT22;1107;48.654;9.250;2023-04-24T07:34:21;10.70;99.90
2202;DHT22;1107;48.654;9.250;2023-04-24T07:36:48;10.50;99.90
2202;DHT22;1107;48.654;9.250;2023-04-24T07:39:15;10.50;99.90
2202;DHT22;1107;48.654;9.250;2023-04-24T07:41:44;10.50;99.90
2202;DHT22;1107;48.654;9.250;2023-04-24T07:44:11;10.70;99.90
2202;DHT22;1107;48.654;9.250;2023-04-24T07:46:38;10.90;99.90
2202;DHT22;1107;48.654;9.250;2023-04-24T07:49:05;11.90;99.90
2202;DHT22;1107;48.654;9.250;2023-04-24T07:51:32;13.40;99.90
2202;DHT22;1107;48.654;9.250;2023-04-24T07:54:03;14.10;99.90
2202;DHT22;1107;48.654;9.250;2023-04-24T07:56:31;14.70;99.90
2202;DHT22;1107;48.654;9.250;2023-04-24T07:58:59;15.70;69.40
2202;DHT22;1107;48.654;9.250;2023-04-24T08:01:27;16.70;1.00
2202;DHT22;1107;48.654;9.250;2023-04-24T08:03:54;16.50;1.00
2202;DHT22;1107;48.654;9.250;2023-04-24T08:06:21;16.00;1.00
2202;DHT22;1107;48.654;9.250;2023-04-24T08:08:48;16.90;1.00
2202;DHT22;1107;48.654;9.250;2023-04-24T08:11:15;17.00;1.00
2202;DHT22;1107;48.654;9.250;2023-04-24T08:13:42;17.10;1.00
2202;DHT22;1107;48.654;9.250;2023-04-24T08:16:10;16.20;1.00
2202;DHT22;1107;48.654;9.250;2023-04-24T08:18:37;16.50;1.00
2202;DHT22;1107;48.654;9.250;2023-04-24T08:21:04;15.60;1.00
2202;DHT22;1107;48.654;9.250;2023-04-24T08:23:31;14.90;1.00
2202;DHT22;1107;48.654;9.250;2023-04-24T08:25:58;14.30;1.00
2202;DHT22;1107;48.654;9.250;2023-04-24T08:28:25;13.80;1.00
2202;DHT22;1107;48.654;9.250;2023-04-24T08:30:52;13.50;1.00
2202;DHT22;1107;48.654;9.250;2023-04-24T08:33:23;12.60;1.00
2202;DHT22;1107;48.654;9.250;2023-04-24T08:35:50;12.60;1.00
2202;DHT22;1107;48.654;9.250;2023-04-24T08:38:17;12.80;1.00
2202;DHT22;1107;48.654;9.250;2023-04-24T08:40:44;13.00;24.40
2202;DHT22;1107;48.654;9.250;2023-04-24T08:43:12;12.90;1.00
2202;DHT22;1107;48.654;9.250;2023-04-24T08:45:40;12.80;1.00
2202;DHT22;1107;48.654;9.250;2023-04-24T08:48:07;12.80;1.00
2202;DHT22;1107;48.654;9.250;2023-04-24T08:50:37;13.20;1.00
2202;DHT22;1107;48.654;9.250;2023-04-24T08:53:07;13.60;1.00
2202;DHT22;1107;48.654;9.250;2023-04-24T08:55:35;14.40;1.00
2202;DHT22;1107;48.654;9.250;2023-04-24T08:58:02;14.70;1.00
2202;DHT22;1107;48.654;9.250;2023-04-24T09:00:30;14.70;1.00
2202;DHT22;1107;48.654;9.250;2023-04-24T09:03:00;14.10;1.00
2202;DHT22;1107;48.654;9.250;2023-04-24T09:05:27;13.90;1.00
2202;DHT22;1107;48.654;9.250;2023-04-24T09:07:56;13.60;1.00
2202;DHT22;1107;48.654;9.250;2023-04-24T09:10:24;13.20;1.00
2202;DHT22;1107;48.654;9.250;2023-04-24T09:12:52;12.90;1.00
2202;DHT22;1107;48.654;9.250;2023-04-24T09:15:19;12.60;1.00
2202;DHT22;1107;48.654;9.250;2023-04-24T09:17:47;12.40;1.00
2202;DHT22;1107;48.654;9.250;2023-04-24T09:20:14;14.10;1.00
2202;DHT22;1107;48.654;9.250;2023-04-24T09:22:42;15.50;1.00
2202;DHT22;1107;48.654;9.250;2023-04-24T09:25:11;16.80;99.90
2202;DHT22;1107;48.654;9.250;2023-04-24T09:27:42;16.60;99.90
2202;DHT22;1107;48.654;9.250;2023-04-24T09:30:11;17.90;99.90
2202;DHT22;1107;48.654;9.250;2023-04-24T09:32:38;18.60;99.90
2202;DHT22;1107;48.654;9.250;2023-04-24T09:35:06;17.50;99.90
2202;DHT22;1107;48.654;9.250;2023-04-24T09:37:35;16.30;99.90
2202;DHT22;1107;48.654;9.250;2023-04-24T09:40:12;17.30;99.90
2202;DHT22;1107;48.654;9.250;2023-04-24T09:42:40;18.00;99.90
2202;DHT22;1107;48.654;9.250;2023-04-24T09:45:10;18.80;99.90
2202;DHT22;1107;48.654;9.250;2023-04-24T09:47:37;18.20;99.90
2202;DHT22;1107;48.654;9.250;2023-04-24T09:50:13;17.70;99.90
2202;DHT22;1107;48.654;9.250;2023-04-24T09:52:41;16.70;99.90
2202;DHT22;1107;48.654;9.250;2023-04-24T09:55:17;15.60;99.90
2202;DHT22;1107;48.654;9.250;2023-04-24T09:57:51;16.30;99.90
2202;DHT22;1107;48.654;9.250;2023-04-24T10:00:22;17.30;99.90
2202;DHT22;1107;48.654;9.250;2023-04-24T10:02:57;18.20;99.90
2202;DHT22;1107;48.654;9.250;2023-04-24T10:05:27;17.60;99.90
2202;DHT22;1107;48.654;9.250;2023-04-24T10:07:57;17.80;99.90
2202;DHT22;1107;48.654;9.250;2023-04-24T10:10:26;16.40;99.90
2202;DHT22;1107;48.654;9.250;2023-04-24T10:12:53;15.90;99.90
2202;DHT22;1107;48.654;9.250;2023-04-24T10:15:21;15.90;99.90
2202;DHT22;1107;48.654;9.250;2023-04-24T10:17:49;15.30;99.90
2202;DHT22;1107;48.654;9.250;2023-04-24T10:20:19;15.60;99.90
2202;DHT22;1107;48.654;9.250;2023-04-24T10:22:48;16.10;99.90
2202;DHT22;1107;48.654;9.250;2023-04-24T10:25:18;16.90;99.90
2202;DHT22;1107;48.654;9.250;2023-04-24T10:27:48;17.30;99.90
2202;DHT22;1107;48.654;9.250;2023-04-24T10:30:16;17.50;99.90
2202;DHT22;1107;48.654;9.250;2023-04-24T10:32:43;17.80;99.90
2202;DHT22;1107;48.654;9.250;2023-04-24T10:35:13;18.20;99.90
2202;DHT22;1107;48.654;9.250;2023-04-24T10:37:43;17.90;99.90
2202;DHT22;1107;48.654;9.250;2023-04-24T10:40:11;18.30;99.90
2202;DHT22;1107;48.654;9.250;2023-04-24T10:42:42;18.80;99.90
2202;DHT22;1107;48.654;9.250;2023-04-24T10:45:17;18.30;99.90
2202;DHT22;1107;48.654;9.250;2023-04-24T10:47:56;18.10;99.90
2202;DHT22;1107;48.654;9.250;2023-04-24T10:50:25;17.50;99.90
2202;DHT22;1107;48.654;9.250;2023-04-24T10:52:52;17.30;99.90
2202;DHT22;1107;48.654;9.250;2023-04-24T10:55:41;16.90;99.90
2202;DHT22;1107;48.654;9.250;2023-04-24T10:58:08;16.60;99.90
2202;DHT22;1107;48.654;9.250;2023-04-24T11:00:38;16.20;99.90
2202;DHT22;1107;48.654;9.250;2023-04-24T11:03:06;16.10;99.90
2202;DHT22;1107;48.654;9.250;2023-04-24T11:05:55;16.00;99.90
2202;DHT22;1107;48.654;9.250;2023-04-24T11:08:27;14.70;99.90
2202;DHT22;1107;48.654;9.250;2023-04-24T11:10:57;14.40;99.90
2202;DHT22;1107;48.654;9.250;2023-04-24T11:13:27;13.90;99.90
2202;DHT22;1107;48.654;9.250;2023-04-24T11:16:14;13.90;99.90
2202;DHT22;1107;48.654;9.250;2023-04-24T11:18:42;13.60;99.90
2202;DHT22;1107;48.654;9.250;2023-04-24T11:21:12;13.70;99.90
2202;DHT22;1107;48.654;9.250;2023-04-24T11:23:39;14.20;99.90
2202;DHT22;1107;48.654;9.250;2023-04-24T11:26:18;14.50;99.90
2202;DHT22;1107;48.654;9.250;2023-04-24T11:28:49;14.40;99.90
2202;DHT22;1107;48.654;9.250;2023-04-24T11:31:39;14.80;99.90
2202;DHT22;1107;48.654;9.250;2023-04-24T11:34:09;14.80;99.90
2202;DHT22;1107;48.654;9.250;2023-04-24T11:36:36;14.40;99.90
2202;DHT22;1107;48.654;9.250;2023-04-24T11:39:03;14.50;99.90
2202;DHT22;1107;48.654;9.250;2023-04-24T11:41:31;14.10;99.90
2202;DHT22;1107;48.654;9.250;2023-04-24T11:43:58;14.00;99.90
2202;DHT22;1107;48.654;9.250;2023-04-24T11:46:28;14.00;99.90
2202;DHT22;1107;48.654;9.250;2023-04-24T11:48:57;13.60;99.90
2202;DHT22;1107;48.654;9.250;2023-04-24T11:51:25;13.30;99.90
2202;DHT22;1107;48.654;9.250;2023-04-24T11:53:52;13.30;99.90
2202;DHT22;1107;48.654;9.250;2023-04-24T11:56:21;12.80;99.90
2202;DHT22;1107;48.654;9.250;2023-04-24T11:58:48;12.90;99.90
2202;DHT22;1107;48.654;9.250;2023-04-24T12:01:15;12.80;99.90
2202;DHT22;1107;48.654;9.250;2023-04-24T12:03:47;13.40;99.90
2202;DHT22;1107;48.654;9.250;2023-04-24T12:06:17;13.60;99.90
2202;DHT22;1107;48.654;9.250;2023-04-24T12:08:48;13.50;99.90
2202;DHT22;1107;48.654;9.250;2023-04-24T12:11:16;13.40;99.90
2202;DHT22;1107;48.654;9.250;2023-04-24T12:13:44;13.60;99.90
2202;DHT22;1107;48.654;9.250;2023-04-24T12:16:12;14.00;99.90
2202;DHT22;1107;48.654;9.250;2023-04-24T12:18:43;13.80;99.90
2202;DHT22;1107;48.654;9.250;2023-04-24T12:21:19;14.30;99.90
2202;DHT22;1107;48.654;9.250;2023-04-24T12:23:47;13.70;99.90
2202;DHT22;1107;48.654;9.250;2023-04-24T12:26:17;13.00;99.90
2202;DHT22;1107;48.654;9.250;2023-04-24T12:28:47;13.10;99.90
2202;DHT22;1107;48.654;9.250;2023-04-24T12:31:15;12.90;99.90
2202;DHT22;1107;48.654;9.250;2023-04-24T12:33:42;12.50;99.90
2202;DHT22;1107;48.654;9.250;2023-04-24T12:36:10;12.30;99.90
2202;DHT22;1107;48.654;9.250;2023-04-24T12:38:42;12.70;99.90
2202;DHT22;1107;48.654;9.250;2023-04-24T12:41:13;12.90;99.90
2202;DHT22;1107;48.654;9.250;2023-04-24T12:43:51;12.90;99.90
2202;DHT22;1107;48.654;9.250;2023-04-24T12:46:18;13.00;99.90
2202;DHT22;1107;48.654;9.250;2023-04-24T12:48:45;13.10;99.90
2202;DHT22;1107;48.654;9.250;2023-04-24T12:51:12;13.00;99.90
2202;DHT22;1107;48.654;9.250;2023-04-24T12:53:40;12.80;99.90
2202;DHT22;1107;48.654;9.250;2023-04-24T12:56:07;13.00;99.90
2202;DHT22;1107;48.654;9.250;2023-04-24T12:58:34;13.00;99.90
2202;DHT22;1107;48.654;9.250;2023-04-24T13:01:01;13.20;99.90
2202;DHT22;1107;48.654;9.250;2023-04-24T13:03:28;13.60;99.90
2202;DHT22;1107;48.654;9.250;2023-04-24T13:05:55;13.80;99.90
2202;DHT22;1107;48.654;9.250;2023-04-24T13:08:22;14.00;99.90
2202;DHT22;1107;48.654;9.250;2023-04-24T13:10:50;14.70;99.90
2202;DHT22;1107;48.654;9.250;2023-04-24T13:13:19;14.70;99.90
2202;DHT22;1107;48.654;9.250;2023-04-24T13:15:46;14.90;99.90
2202;DHT22;1107;48.654;9.250;2023-04-24T13:18:13;15.00;99.90
2202;DHT22;1107;48.654;9.250;2023-04-24T13:20:40;14.90;99.90
2202;DHT22;1107;48.654;9.250;2023-04-24T13:23:07;15.00;99.90
2202;DHT22;1107;48.654;9.250;2023-04-24T13:25:35;15.30;99.90
2202;DHT22;1107;48.654;9.250;2023-04-24T13:28:04;15.30;99.90
2202;DHT22;1107;48.654;9.250;2023-04-24T13:30:31;15.20;99.90
2202;DHT22;1107;48.654;9.250;2023-04-24T13:32:58;15.00;99.90
2202;DHT22;1107;48.654;9.250;2023-04-24T13:35:25;14.70;99.90
2202;DHT22;1107;48.654;9.250;2023-04-24T13:37:52;14.40;99.90
2202;DHT22;1107;48.654;9.250;2023-04-24T13:40:19;14.20;99.90
2202;DHT22;1107;48.654;9.250;2023-04-24T13:42:46;13.80;99.90
2202;DHT22;1107;48.654;9.250;2023-04-24T13:45:14;13.50;99.90
2202;DHT22;1107;48.654;9.250;2023-04-24T13:47:41;13.10;99.90
2202;DHT22;1107;48.654;9.250;2023-04-24T13:50:09;13.10;99.90
2202;DHT22;1107;48.654;9.250;2023-04-24T13:52:36;12.90;99.90
2202;DHT22;1107;48.654;9.250;2023-04-24T13:55:04;13.00;99.90
2202;DHT22;1107;48.654;9.250;2023-04-24T13:57:31;13.10;99.90
2202;DHT22;1107;48.654;9.250;2023-04-24T13:59:58;12.90;99.90
2202;DHT22;1107;48.654;9.250;2023-04-24T14:02:28;12.80;99.90
2202;DHT22;1107;48.654;9.250;2023-04-24T14:04:55;12.70;99.90
2202;DHT22;1107;48.654;9.250;2023-04-24T14:07:22;12.70;99.90
2202;DHT22;1107;48.654;9.250;2023-04-24T14:09:49;12.90;99.90
2202;DHT22;1107;48.654;9.250;2023-04-24T14:12:16;13.30;99.90
2202;DHT22;1107;48.654;9.250;2023-04-24T14:14:46;13.40;99.90
2202;DHT22;1107;48.654;9.250;2023-04-24T14:17:13;13.50;99.90
2202;DHT22;1107;48.654;9.250;2023-04-24T14:19:42;13.60;99.90
2202;DHT22;1107;48.654;9.250;2023-04-24T14:22:09;13.40;99.90
2202;DHT22;1107;48.654;9.250;2023-04-24T14:24:36;13.20;99.90
2202;DHT22;1107;48.654;9.250;2023-04-24T14:27:03;13.00;99.90
2202;DHT22;1107;48.654;9.250;2023-04-24T14:29:30;12.90;99.90
2202;DHT22;1107;48.654;9.250;2023-04-24T14:31:57;12.80;99.90
2202;DHT22;1107;48.654;9.250;2023-04-24T14:34:24;12.80;99.90
2202;DHT22;1107;48.654;9.250;2023-04-24T14:36:52;12.60;99.90
2202;DHT22;1107;48.654;9.250;2023-04-24T14:39:20;12.40;99.90
2202;DHT22;1107;48.654;9.250;2023-04-24T14:41:47;12.50;99.90
2202;DHT22;1107;48.654;9.250;2023-04-24T14:44:14;12.60;99.90
2202;DHT22;1107;48.654;9.250;2023-04-24T14:46:41;12.80;99.90
2202;DHT22;1107;48.654;9.250;2023-04-24T14:49:08;13.40;99.90
2202;DHT22;1107;48.654;9.250;2023-04-24T14:51:37;14.10;1.00
2202;DHT22;1107;48.654;9.250;2023-04-24T14:54:05;14.80;1.00
2202;DHT22;1107;48.654;9.250;2023-04-24T14:56:32;15.60;99.90
2202;DHT22;1107;48.654;9.250;2023-04-24T14:58:59;16.00;99.90
2202;DHT22;1107;48.654;9.250;2023-04-24T15:01:26;15.70;99.90
2202;DHT22;1107;48.654;9.250;2023-04-24T15:03:53;15.10;99.90
2202;DHT22;1107;48.654;9.250;2023-04-24T15:06:20;15.20;99.90
2202;DHT22;1107;48.654;9.250;2023-04-24T15:08:47;15.30;99.90
2202;DHT22;1107;48.654;9.250;2023-04-24T15:11:16;15.00;99.90
2202;DHT22;1107;48.654;9.250;2023-04-24T15:13:43;14.60;99.90
2202;DHT22;1107;48.654;9.250;2023-04-24T15:16:10;14.40;99.90
2202;DHT22;1107;48.654;9.250;2023-04-24T15:18:37;14.20;99.90
2202;DHT22;1107;48.654;9.250;2023-04-24T15:21:04;14.10;99.90
2202;DHT22;1107;48.654;9.250;2023-04-24T15:23:31;14.00;99.90
2202;DHT22;1107;48.654;9.250;2023-04-24T15:25:58;14.10;99.90
2202;DHT22;1107;48.654;9.250;2023-04-24T15:28:28;14.10;99.90
2202;DHT22;1107;48.654;9.250;2023-04-24T15:30:55;14.20;99.90
2202;DHT22;1107;48.654;9.250;2023-04-24T15:33:22;14.10;99.90
2202;DHT22;1107;48.654;9.250;2023-04-24T15:35:49;14.30;99.90
2202;DHT22;1107;48.654;9.250;2023-04-24T15:38:15;14.00;99.90
2202;DHT22;1107;48.654;9.250;2023-04-24T15:40:42;13.90;99.90
2202;DHT22;1107;48.654;9.250;2023-04-24T15:43:10;13.70;99.90
2202;DHT22;1107;48.654;9.250;2023-04-24T15:45:39;13.50;99.90
2202;DHT22;1107;48.654;9.250;2023-04-24T15:48:06;13.60;99.90
2202;DHT22;1107;48.654;9.250;2023-04-24T15:50:33;13.60;99.90
2202;DHT22;1107;48.654;9.250;2023-04-24T15:53:00;13.60;99.90
2202;DHT22;1107;48.654;9.250;2023-04-24T15:55:27;13.60;99.90
2202;DHT22;1107;48.654;9.250;2023-04-24T15:57:54;13.80;99.90
2202;DHT22;1107;48.654;9.250;2023-04-24T16:00:21;13.80;99.90
2202;DHT22;1107;48.654;9.250;2023-04-24T16:02:49;13.50;99.90
2202;DHT22;1107;48.654;9.250;2023-04-24T16:05:16;13.40;99.90
2202;DHT22;1107;48.654;9.250;2023-04-24T16:07:44;13.30;99.90
2202;DHT22;1107;48.654;9.250;2023-04-24T16:10:11;13.20;99.90